sensor_id;sensor_type;location;lat;lon;timestamp;P1;durP1;ratioP1;P2;durP2;ratioP2
76935;SDS011;65881;52.438;16.744;2024-02-16T00:02:01;37.10;;;22.92;;
76935;SDS011;65881;52.438;16.744;2024-02-16T00:04:27;39.58;;;22.27;;
76935;SDS011;65881;52.438;16.744;2024-02-16T00:06:53;36.90;;;22.05;;
76935;SDS011;65881;52.438;16.744;2024-02-16T00:09:18;32.88;;;21.73;;
76935;SDS011;65881;52.438;16.744;2024-02-16T00:11:44;40.55;;;21.52;;
76935;SDS011;65881;52.438;16.744;2024-02-16T00:14:10;38.80;;;23.90;;
76935;SDS011;65881;52.438;16.744;2024-02-16T00:16:36;32.17;;;21.55;;
76935;SDS011;65881;52.438;16.744;2024-02-16T00:19:01;35.88;;;22.38;;
76935;SDS011;65881;52.438;16.744;2024-02-16T00:21:27;39.67;;;22.13;;
76935;SDS011;65881;52.438;16.744;2024-02-16T00:23:54;38.58;;;23.38;;
76935;SDS011;65881;52.438;16.744;2024-02-16T00:26:20;35.55;;;22.30;;
76935;SDS011;65881;52.438;16.744;2024-02-16T00:28:46;40.22;;;22.95;;
76935;SDS011;65881;52.438;16.744;2024-02-16T00:31:12;32.72;;;22.02;;
76935;SDS011;65881;52.438;16.744;2024-02-16T00:33:37;36.92;;;21.60;;
76935;SDS011;65881;52.438;16.744;2024-02-16T00:36:03;33.22;;;22.67;;
76935;SDS011;65881;52.438;16.744;2024-02-16T00:38:28;36.00;;;20.95;;
76935;SDS011;65881;52.438;16.744;2024-02-16T00:40:54;38.10;;;21.75;;
76935;SDS011;65881;52.438;16.744;2024-02-16T00:43:20;35.30;;;20.17;;
76935;SDS011;65881;52.438;16.744;2024-02-16T00:45:45;34.42;;;20.75;;
76935;SDS011;65881;52.438;16.744;2024-02-16T00:48:12;33.88;;;22.10;;
76935;SDS011;65881;52.438;16.744;2024-02-16T00:50:37;34.28;;;21.30;;
76935;SDS011;65881;52.438;16.744;2024-02-16T00:53:03;29.35;;;18.70;;
76935;SDS011;65881;52.438;16.744;2024-02-16T00:55:29;32.00;;;21.02;;
76935;SDS011;65881;52.438;16.744;2024-02-16T00:57:55;30.50;;;18.63;;
76935;SDS011;65881;52.438;16.744;2024-02-16T01:00:21;32.88;;;19.40;;
76935;SDS011;65881;52.438;16.744;2024-02-16T01:02:48;37.40;;;20.17;;
76935;SDS011;65881;52.438;16.744;2024-02-16T01:05:14;31.60;;;20.08;;
76935;SDS011;65881;52.438;16.744;2024-02-16T01:07:42;36.33;;;20.48;;
76935;SDS011;65881;52.438;16.744;2024-02-16T01:10:08;32.30;;;20.73;;
76935;SDS011;65881;52.438;16.744;2024-02-16T01:12:34;30.80;;;22.05;;
76935;SDS011;65881;52.438;16.744;2024-02-16T01:15:00;27.52;;;18.85;;
76935;SDS011;65881;52.438;16.744;2024-02-16T01:17:25;33.58;;;20.65;;
76935;SDS011;65881;52.438;16.744;2024-02-16T01:19:51;31.55;;;20.05;;
76935;SDS011;65881;52.438;16.744;2024-02-16T01:22:17;35.28;;;21.60;;
76935;SDS011;65881;52.438;16.744;2024-02-16T01:24:43;29.98;;;19.55;;
76935;SDS011;65881;52.438;16.744;2024-02-16T01:29:41;31.88;;;19.48;;
76935;SDS011;65881;52.438;16.744;2024-02-16T01:32:06;29.80;;;19.42;;
76935;SDS011;65881;52.438;16.744;2024-02-16T01:34:32;29.77;;;19.83;;
76935;SDS011;65881;52.438;16.744;2024-02-16T01:36:58;28.90;;;19.45;;
76935;SDS011;65881;52.438;16.744;2024-02-16T01:39:24;27.30;;;18.23;;
76935;SDS011;65881;52.438;16.744;2024-02-16T01:41:50;34.70;;;19.77;;
76935;SDS011;65881;52.438;16.744;2024-02-16T01:44:15;32.13;;;19.80;;
76935;SDS011;65881;52.438;16.744;2024-02-16T01:46:42;28.38;;;18.85;;
76935;SDS011;65881;52.438;16.744;2024-02-16T01:49:08;29.77;;;20.13;;
76935;SDS011;65881;52.438;16.744;2024-02-16T01:51:34;28.60;;;20.13;;
76935;SDS011;65881;52.438;16.744;2024-02-16T01:54:01;28.95;;;19.92;;
76935;SDS011;65881;52.438;16.744;2024-02-16T01:56:27;26.50;;;17.75;;
76935;SDS011;65881;52.438;16.744;2024-02-16T01:58:53;30.35;;;19.88;;
76935;SDS011;65881;52.438;16.744;2024-02-16T02:01:18;28.13;;;17.92;;
76935;SDS011;65881;52.438;16.744;2024-02-16T02:03:44;29.27;;;19.83;;
76935;SDS011;65881;52.438;16.744;2024-02-16T02:06:10;30.25;;;21.27;;
76935;SDS011;65881;52.438;16.744;2024-02-16T02:08:35;34.20;;;20.75;;
76935;SDS011;65881;52.438;16.744;2024-02-16T02:11:02;29.40;;;17.85;;
76935;SDS011;65881;52.438;16.744;2024-02-16T02:13:28;28.25;;;18.02;;
76935;SDS011;65881;52.438;16.744;2024-02-16T02:15:54;33.67;;;19.50;;
76935;SDS011;65881;52.438;16.744;2024-02-16T02:18:21;27.25;;;18.35;;
76935;SDS011;65881;52.438;16.744;2024-02-16T02:20:46;30.25;;;18.85;;
76935;SDS011;65881;52.438;16.744;2024-02-16T02:23:12;29.30;;;19.40;;
76935;SDS011;65881;52.438;16.744;2024-02-16T02:25:38;32.55;;;20.77;;
76935;SDS011;65881;52.438;16.744;2024-02-16T02:28:05;31.20;;;18.20;;
76935;SDS011;65881;52.438;16.744;2024-02-16T02:30:31;32.33;;;19.67;;
76935;SDS011;65881;52.438;16.744;2024-02-16T02:32:56;38.45;;;19.42;;
76935;SDS011;65881;52.438;16.744;2024-02-16T02:35:22;31.83;;;19.80;;
76935;SDS011;65881;52.438;16.744;2024-02-16T02:37:48;29.13;;;18.00;;
76935;SDS011;65881;52.438;16.744;2024-02-16T02:40:13;27.17;;;19.38;;
76935;SDS011;65881;52.438;16.744;2024-02-16T02:42:39;27.20;;;17.63;;
76935;SDS011;65881;52.438;16.744;2024-02-16T02:45:05;28.55;;;18.88;;
76935;SDS011;65881;52.438;16.744;2024-02-16T02:47:31;27.23;;;18.92;;
76935;SDS011;65881;52.438;16.744;2024-02-16T02:49:57;26.05;;;18.05;;
76935;SDS011;65881;52.438;16.744;2024-02-16T02:52:23;33.70;;;19.35;;
76935;SDS011;65881;52.438;16.744;2024-02-16T02:54:48;29.35;;;18.30;;
76935;SDS011;65881;52.438;16.744;2024-02-16T02:57:14;32.83;;;19.38;;
76935;SDS011;65881;52.438;16.744;2024-02-16T02:59:39;31.80;;;20.08;;
76935;SDS011;65881;52.438;16.744;2024-02-16T03:02:05;33.38;;;21.25;;
76935;SDS011;65881;52.438;16.744;2024-02-16T03:04:30;32.22;;;20.33;;
76935;SDS011;65881;52.438;16.744;2024-02-16T03:06:56;35.05;;;23.00;;
76935;SDS011;65881;52.438;16.744;2024-02-16T03:09:22;35.22;;;22.35;;
76935;SDS011;65881;52.438;16.744;2024-02-16T03:11:48;36.78;;;23.15;;
76935;SDS011;65881;52.438;16.744;2024-02-16T03:14:15;38.15;;;23.60;;
76935;SDS011;65881;52.438;16.744;2024-02-16T03:16:42;37.80;;;22.50;;
76935;SDS011;65881;52.438;16.744;2024-02-16T03:19:07;32.47;;;20.65;;
76935;SDS011;65881;52.438;16.744;2024-02-16T03:21:36;33.30;;;21.70;;
76935;SDS011;65881;52.438;16.744;2024-02-16T03:24:02;37.45;;;23.38;;
76935;SDS011;65881;52.438;16.744;2024-02-16T03:26:29;39.05;;;22.42;;
76935;SDS011;65881;52.438;16.744;2024-02-16T03:28:54;39.22;;;22.83;;
76935;SDS011;65881;52.438;16.744;2024-02-16T03:31:22;34.42;;;23.23;;
76935;SDS011;65881;52.438;16.744;2024-02-16T03:33:49;37.17;;;22.85;;
76935;SDS011;65881;52.438;16.744;2024-02-16T03:36:16;43.42;;;24.73;;
76935;SDS011;65881;52.438;16.744;2024-02-16T03:38:44;41.50;;;24.60;;
76935;SDS011;65881;52.438;16.744;2024-02-16T03:41:14;40.70;;;23.98;;
76935;SDS011;65881;52.438;16.744;2024-02-16T03:43:42;37.47;;;25.13;;
76935;SDS011;65881;52.438;16.744;2024-02-16T03:46:08;40.95;;;25.10;;
76935;SDS011;65881;52.438;16.744;2024-02-16T03:48:34;40.47;;;24.98;;
76935;SDS011;65881;52.438;16.744;2024-02-16T03:50:59;40.80;;;25.17;;
76935;SDS011;65881;52.438;16.744;2024-02-16T03:53:26;37.88;;;25.95;;
76935;SDS011;65881;52.438;16.744;2024-02-16T03:55:51;43.50;;;26.63;;
76935;SDS011;65881;52.438;16.744;2024-02-16T03:58:17;48.92;;;28.42;;
76935;SDS011;65881;52.438;16.744;2024-02-16T04:00:43;45.25;;;27.55;;
76935;SDS011;65881;52.438;16.744;2024-02-16T04:03:08;46.28;;;26.55;;
76935;SDS011;65881;52.438;16.744;2024-02-16T04:05:34;43.58;;;26.73;;
76935;SDS011;65881;52.438;16.744;2024-02-16T04:08:03;46.08;;;27.15;;
76935;SDS011;65881;52.438;16.744;2024-02-16T04:10:31;44.80;;;26.02;;
76935;SDS011;65881;52.438;16.744;2024-02-16T04:12:57;42.53;;;26.52;;
76935;SDS011;65881;52.438;16.744;2024-02-16T04:15:22;40.05;;;26.48;;
76935;SDS011;65881;52.438;16.744;2024-02-16T04:17:48;41.92;;;27.33;;
76935;SDS011;65881;52.438;16.744;2024-02-16T04:20:17;46.20;;;26.88;;
76935;SDS011;65881;52.438;16.744;2024-02-16T04:22:43;47.20;;;25.92;;
76935;SDS011;65881;52.438;16.744;2024-02-16T04:25:09;43.97;;;26.10;;
76935;SDS011;65881;52.438;16.744;2024-02-16T04:27:34;41.75;;;25.42;;
76935;SDS011;65881;52.438;16.744;2024-02-16T04:30:01;45.80;;;26.00;;
76935;SDS011;65881;52.438;16.744;2024-02-16T04:32:27;42.67;;;26.17;;
76935;SDS011;65881;52.438;16.744;2024-02-16T04:34:53;40.88;;;23.52;;
76935;SDS011;65881;52.438;16.744;2024-02-16T04:37:21;44.05;;;26.58;;
76935;SDS011;65881;52.438;16.744;2024-02-16T04:39:47;38.75;;;24.38;;
76935;SDS011;65881;52.438;16.744;2024-02-16T04:42:13;43.42;;;26.05;;
76935;SDS011;65881;52.438;16.744;2024-02-16T04:44:38;39.75;;;24.50;;
76935;SDS011;65881;52.438;16.744;2024-02-16T04:47:04;37.40;;;23.13;;
76935;SDS011;65881;52.438;16.744;2024-02-16T04:49:30;35.75;;;22.58;;
76935;SDS011;65881;52.438;16.744;2024-02-16T04:51:56;37.60;;;22.50;;
76935;SDS011;65881;52.438;16.744;2024-02-16T04:54:21;39.85;;;23.75;;
76935;SDS011;65881;52.438;16.744;2024-02-16T04:56:47;41.70;;;23.23;;
76935;SDS011;65881;52.438;16.744;2024-02-16T04:59:14;41.40;;;26.98;;
76935;SDS011;65881;52.438;16.744;2024-02-16T05:01:40;39.42;;;25.05;;
76935;SDS011;65881;52.438;16.744;2024-02-16T05:04:06;42.20;;;24.25;;
76935;SDS011;65881;52.438;16.744;2024-02-16T05:06:31;42.92;;;27.00;;
76935;SDS011;65881;52.438;16.744;2024-02-16T05:08:57;43.10;;;26.95;;
76935;SDS011;65881;52.438;16.744;2024-02-16T05:11:23;39.50;;;24.42;;
76935;SDS011;65881;52.438;16.744;2024-02-16T05:13:52;41.47;;;24.95;;
76935;SDS011;65881;52.438;16.744;2024-02-16T05:16:18;34.22;;;23.00;;
76935;SDS011;65881;52.438;16.744;2024-02-16T05:18:43;41.60;;;24.35;;
76935;SDS011;65881;52.438;16.744;2024-02-16T05:21:09;45.22;;;23.05;;
76935;SDS011;65881;52.438;16.744;2024-02-16T05:23:34;38.30;;;23.60;;
76935;SDS011;65881;52.438;16.744;2024-02-16T05:26:00;40.38;;;22.95;;
76935;SDS011;65881;52.438;16.744;2024-02-16T05:28:26;37.53;;;22.95;;
76935;SDS011;65881;52.438;16.744;2024-02-16T05:30:51;39.35;;;23.40;;
76935;SDS011;65881;52.438;16.744;2024-02-16T05:33:17;44.58;;;26.60;;
76935;SDS011;65881;52.438;16.744;2024-02-16T05:35:43;39.90;;;24.17;;
76935;SDS011;65881;52.438;16.744;2024-02-16T05:38:09;35.58;;;24.13;;
76935;SDS011;65881;52.438;16.744;2024-02-16T05:40:56;38.63;;;22.88;;
76935;SDS011;65881;52.438;16.744;2024-02-16T05:43:22;47.00;;;25.50;;
76935;SDS011;65881;52.438;16.744;2024-02-16T05:45:48;46.45;;;27.52;;
76935;SDS011;65881;52.438;16.744;2024-02-16T05:48:14;48.58;;;27.30;;
76935;SDS011;65881;52.438;16.744;2024-02-16T05:50:40;41.58;;;26.15;;
76935;SDS011;65881;52.438;16.744;2024-02-16T05:53:06;40.88;;;24.08;;
76935;SDS011;65881;52.438;16.744;2024-02-16T05:55:32;40.15;;;24.38;;
76935;SDS011;65881;52.438;16.744;2024-02-16T05:57:58;36.83;;;22.98;;
76935;SDS011;65881;52.438;16.744;2024-02-16T06:00:23;37.90;;;23.52;;
76935;SDS011;65881;52.438;16.744;2024-02-16T06:02:49;37.53;;;25.20;;
76935;SDS011;65881;52.438;16.744;2024-02-16T06:05:15;42.67;;;25.85;;
76935;SDS011;65881;52.438;16.744;2024-02-16T06:07:40;46.80;;;25.25;;
76935;SDS011;65881;52.438;16.744;2024-02-16T06:10:06;46.03;;;23.83;;
76935;SDS011;65881;52.438;16.744;2024-02-16T06:12:38;36.08;;;22.75;;
76935;SDS011;65881;52.438;16.744;2024-02-16T06:15:04;38.22;;;22.08;;
76935;SDS011;65881;52.438;16.744;2024-02-16T06:17:30;40.78;;;24.98;;
76935;SDS011;65881;52.438;16.744;2024-02-16T06:19:56;37.50;;;23.13;;
76935;SDS011;65881;52.438;16.744;2024-02-16T06:22:21;35.75;;;23.45;;
76935;SDS011;65881;52.438;16.744;2024-02-16T06:24:47;36.78;;;23.02;;
76935;SDS011;65881;52.438;16.744;2024-02-16T06:27:14;37.15;;;21.63;;
76935;SDS011;65881;52.438;16.744;2024-02-16T06:29:40;37.42;;;23.33;;
76935;SDS011;65881;52.438;16.744;2024-02-16T06:32:06;39.53;;;23.40;;
76935;SDS011;65881;52.438;16.744;2024-02-16T06:34:32;36.08;;;21.15;;
76935;SDS011;65881;52.438;16.744;2024-02-16T06:36:58;42.03;;;24.90;;
76935;SDS011;65881;52.438;16.744;2024-02-16T06:39:24;45.92;;;24.33;;
76935;SDS011;65881;52.438;16.744;2024-02-16T06:41:49;39.53;;;24.67;;
76935;SDS011;65881;52.438;16.744;2024-02-16T06:44:15;41.72;;;24.05;;
76935;SDS011;65881;52.438;16.744;2024-02-16T06:46:42;43.40;;;24.05;;
76935;SDS011;65881;52.438;16.744;2024-02-16T06:49:08;35.17;;;21.35;;
76935;SDS011;65881;52.438;16.744;2024-02-16T06:51:33;33.38;;;21.33;;
76935;SDS011;65881;52.438;16.744;2024-02-16T06:53:59;34.53;;;21.42;;
76935;SDS011;65881;52.438;16.744;2024-02-16T06:56:25;43.08;;;23.17;;
76935;SDS011;65881;52.438;16.744;2024-02-16T06:58:51;37.80;;;22.95;;
76935;SDS011;65881;52.438;16.744;2024-02-16T07:01:17;39.85;;;23.30;;
76935;SDS011;65881;52.438;16.744;2024-02-16T07:03:43;44.95;;;26.42;;
76935;SDS011;65881;52.438;16.744;2024-02-16T07:06:09;40.40;;;23.20;;
76935;SDS011;65881;52.438;16.744;2024-02-16T07:08:41;45.03;;;23.52;;
76935;SDS011;65881;52.438;16.744;2024-02-16T07:11:07;37.60;;;26.33;;
76935;SDS011;65881;52.438;16.744;2024-02-16T07:13:36;42.03;;;24.40;;
76935;SDS011;65881;52.438;16.744;2024-02-16T07:16:12;44.13;;;24.27;;
76935;SDS011;65881;52.438;16.744;2024-02-16T07:18:38;44.35;;;25.80;;
76935;SDS011;65881;52.438;16.744;2024-02-16T07:21:03;39.47;;;25.73;;
76935;SDS011;65881;52.438;16.744;2024-02-16T07:23:29;41.40;;;23.67;;
76935;SDS011;65881;52.438;16.744;2024-02-16T07:25:55;41.45;;;23.58;;
76935;SDS011;65881;52.438;16.744;2024-02-16T07:28:24;39.80;;;22.33;;
76935;SDS011;65881;52.438;16.744;2024-02-16T07:30:51;43.95;;;24.45;;
76935;SDS011;65881;52.438;16.744;2024-02-16T07:33:18;38.25;;;22.95;;
76935;SDS011;65881;52.438;16.744;2024-02-16T07:35:43;41.63;;;26.05;;
76935;SDS011;65881;52.438;16.744;2024-02-16T07:38:09;40.95;;;24.77;;
76935;SDS011;65881;52.438;16.744;2024-02-16T07:43:04;40.47;;;22.83;;
76935;SDS011;65881;52.438;16.744;2024-02-16T07:45:30;42.85;;;24.73;;
76935;SDS011;65881;52.438;16.744;2024-02-16T07:47:56;39.85;;;24.75;;
76935;SDS011;65881;52.438;16.744;2024-02-16T07:50:22;38.55;;;23.20;;
76935;SDS011;65881;52.438;16.744;2024-02-16T07:52:49;34.70;;;22.67;;
76935;SDS011;65881;52.438;16.744;2024-02-16T07:55:15;38.60;;;23.45;;
76935;SDS011;65881;52.438;16.744;2024-02-16T07:57:43;36.42;;;22.92;;
76935;SDS011;65881;52.438;16.744;2024-02-16T08:00:10;41.08;;;23.90;;
76935;SDS011;65881;52.438;16.744;2024-02-16T08:02:36;39.47;;;22.58;;
76935;SDS011;65881;52.438;16.744;2024-02-16T08:05:02;39.58;;;22.15;;
76935;SDS011;65881;52.438;16.744;2024-02-16T08:07:28;37.03;;;22.55;;
76935;SDS011;65881;52.438;16.744;2024-02-16T08:09:54;35.05;;;22.02;;
76935;SDS011;65881;52.438;16.744;2024-02-16T08:12:20;36.42;;;20.38;;
76935;SDS011;65881;52.438;16.744;2024-02-16T08:14:50;29.52;;;20.27;;
76935;SDS011;65881;52.438;16.744;2024-02-16T08:17:15;33.35;;;19.85;;
76935;SDS011;65881;52.438;16.744;2024-02-16T08:19:50;27.25;;;18.45;;
76935;SDS011;65881;52.438;16.744;2024-02-16T08:22:18;29.08;;;18.50;;
76935;SDS011;65881;52.438;16.744;2024-02-16T08:24:44;25.90;;;18.35;;
76935;SDS011;65881;52.438;16.744;2024-02-16T08:27:11;28.10;;;18.70;;
76935;SDS011;65881;52.438;16.744;2024-02-16T08:29:40;26.95;;;16.35;;
76935;SDS011;65881;52.438;16.744;2024-02-16T08:32:06;29.05;;;18.70;;
76935;SDS011;65881;52.438;16.744;2024-02-16T08:34:33;30.33;;;19.08;;
76935;SDS011;65881;52.438;16.744;2024-02-16T08:37:03;28.83;;;16.85;;
76935;SDS011;65881;52.438;16.744;2024-02-16T08:39:29;27.92;;;16.88;;
76935;SDS011;65881;52.438;16.744;2024-02-16T08:41:56;26.38;;;17.15;;
76935;SDS011;65881;52.438;16.744;2024-02-16T08:44:25;21.20;;;14.23;;
76935;SDS011;65881;52.438;16.744;2024-02-16T08:46:51;21.48;;;14.68;;
76935;SDS011;65881;52.438;16.744;2024-02-16T08:49:18;25.60;;;16.02;;
76935;SDS011;65881;52.438;16.744;2024-02-16T08:51:44;25.00;;;15.90;;
76935;SDS011;65881;52.438;16.744;2024-02-16T08:54:09;20.83;;;14.60;;
76935;SDS011;65881;52.438;16.744;2024-02-16T08:56:35;21.67;;;15.30;;
76935;SDS011;65881;52.438;16.744;2024-02-16T08:59:01;21.10;;;12.43;;
76935;SDS011;65881;52.438;16.744;2024-02-16T09:01:33;23.30;;;13.15;;
76935;SDS011;65881;52.438;16.744;2024-02-16T09:03:59;22.73;;;14.55;;
76935;SDS011;65881;52.438;16.744;2024-02-16T09:06:25;19.27;;;14.35;;
76935;SDS011;65881;52.438;16.744;2024-02-16T09:08:52;20.33;;;13.57;;
76935;SDS011;65881;52.438;16.744;2024-02-16T09:11:17;20.33;;;14.25;;
76935;SDS011;65881;52.438;16.744;2024-02-16T09:13:44;17.95;;;12.18;;
76935;SDS011;65881;52.438;16.744;2024-02-16T09:16:10;19.30;;;13.27;;
76935;SDS011;65881;52.438;16.744;2024-02-16T09:18:36;21.60;;;12.93;;
76935;SDS011;65881;52.438;16.744;2024-02-16T09:21:05;20.40;;;13.00;;
76935;SDS011;65881;52.438;16.744;2024-02-16T09:23:31;21.17;;;11.82;;
76935;SDS011;65881;52.438;16.744;2024-02-16T09:25:57;20.73;;;14.35;;
76935;SDS011;65881;52.438;16.744;2024-02-16T09:28:24;21.55;;;13.95;;
76935;SDS011;65881;52.438;16.744;2024-02-16T09:30:50;19.83;;;14.13;;
76935;SDS011;65881;52.438;16.744;2024-02-16T09:33:16;19.50;;;12.88;;
76935;SDS011;65881;52.438;16.744;2024-02-16T09:35:42;19.70;;;13.60;;
76935;SDS011;65881;52.438;16.744;2024-02-16T09:38:07;19.50;;;13.60;;
76935;SDS011;65881;52.438;16.744;2024-02-16T09:40:36;28.80;;;13.23;;
76935;SDS011;65881;52.438;16.744;2024-02-16T09:43:02;19.73;;;13.27;;
76935;SDS011;65881;52.438;16.744;2024-02-16T09:45:31;18.38;;;12.30;;
76935;SDS011;65881;52.438;16.744;2024-02-16T09:47:59;19.38;;;12.82;;
76935;SDS011;65881;52.438;16.744;2024-02-16T09:50:26;20.83;;;13.02;;
76935;SDS011;65881;52.438;16.744;2024-02-16T09:52:54;22.25;;;14.13;;
76935;SDS011;65881;52.438;16.744;2024-02-16T09:55:23;18.67;;;12.95;;
76935;SDS011;65881;52.438;16.744;2024-02-16T09:57:59;20.52;;;13.05;;
76935;SDS011;65881;52.438;16.744;2024-02-16T10:00:27;19.30;;;12.02;;
76935;SDS011;65881;52.438;16.744;2024-02-16T10:02:53;17.52;;;13.60;;
76935;SDS011;65881;52.438;16.744;2024-02-16T10:05:21;15.90;;;11.55;;
76935;SDS011;65881;52.438;16.744;2024-02-16T10:07:47;21.00;;;12.70;;
76935;SDS011;65881;52.438;16.744;2024-02-16T10:10:22;20.95;;;13.73;;
76935;SDS011;65881;52.438;16.744;2024-02-16T10:13:02;16.17;;;11.50;;
76935;SDS011;65881;52.438;16.744;2024-02-16T10:15:29;16.17;;;11.52;;
76935;SDS011;65881;52.438;16.744;2024-02-16T10:20:24;14.63;;;10.82;;
76935;SDS011;65881;52.438;16.744;2024-02-16T10:22:49;17.27;;;10.57;;
76935;SDS011;65881;52.438;16.744;2024-02-16T10:25:15;15.63;;;11.00;;
76935;SDS011;65881;52.438;16.744;2024-02-16T10:27:41;17.33;;;11.65;;
76935;SDS011;65881;52.438;16.744;2024-02-16T10:30:07;13.68;;;9.95;;
76935;SDS011;65881;52.438;16.744;2024-02-16T10:32:36;18.40;;;11.75;;
76935;SDS011;65881;52.438;16.744;2024-02-16T10:35:04;14.82;;;11.13;;
76935;SDS011;65881;52.438;16.744;2024-02-16T10:37:33;15.63;;;11.35;;
76935;SDS011;65881;52.438;16.744;2024-02-16T10:39:59;16.75;;;11.85;;
76935;SDS011;65881;52.438;16.744;2024-02-16T10:42:27;17.23;;;12.02;;
76935;SDS011;65881;52.438;16.744;2024-02-16T10:44:55;16.70;;;12.23;;
76935;SDS011;65881;52.438;16.744;2024-02-16T10:47:21;14.55;;;11.52;;
76935;SDS011;65881;52.438;16.744;2024-02-16T10:49:50;17.33;;;11.82;;
76935;SDS011;65881;52.438;16.744;2024-02-16T10:52:25;15.63;;;13.02;;
76935;SDS011;65881;52.438;16.744;2024-02-16T10:54:51;18.40;;;11.90;;
76935;SDS011;65881;52.438;16.744;2024-02-16T10:57:17;16.20;;;12.32;;
76935;SDS011;65881;52.438;16.744;2024-02-16T10:59:43;16.08;;;11.48;;
76935;SDS011;65881;52.438;16.744;2024-02-16T11:02:10;16.35;;;11.65;;
76935;SDS011;65881;52.438;16.744;2024-02-16T11:04:37;17.83;;;11.65;;
76935;SDS011;65881;52.438;16.744;2024-02-16T11:07:10;17.83;;;12.75;;
76935;SDS011;65881;52.438;16.744;2024-02-16T11:09:38;14.65;;;11.48;;
76935;SDS011;65881;52.438;16.744;2024-02-16T11:12:05;17.45;;;11.93;;
76935;SDS011;65881;52.438;16.744;2024-02-16T11:17:13;17.10;;;12.43;;
76935;SDS011;65881;52.438;16.744;2024-02-16T11:19:46;15.50;;;11.20;;
76935;SDS011;65881;52.438;16.744;2024-02-16T11:22:19;13.85;;;11.02;;
76935;SDS011;65881;52.438;16.744;2024-02-16T11:24:46;16.50;;;12.25;;
76935;SDS011;65881;52.438;16.744;2024-02-16T11:27:23;20.27;;;13.35;;
76935;SDS011;65881;52.438;16.744;2024-02-16T11:29:50;22.15;;;12.50;;
76935;SDS011;65881;52.438;16.744;2024-02-16T11:32:15;16.38;;;11.63;;
76935;SDS011;65881;52.438;16.744;2024-02-16T11:34:43;19.27;;;11.30;;
76935;SDS011;65881;52.438;16.744;2024-02-16T11:37:09;15.77;;;11.27;;
76935;SDS011;65881;52.438;16.744;2024-02-16T11:39:38;15.38;;;10.43;;
76935;SDS011;65881;52.438;16.744;2024-02-16T11:42:05;15.52;;;10.48;;
76935;SDS011;65881;52.438;16.744;2024-02-16T11:44:35;18.73;;;12.48;;
76935;SDS011;65881;52.438;16.744;2024-02-16T11:47:04;16.17;;;12.05;;
76935;SDS011;65881;52.438;16.744;2024-02-16T11:49:32;16.52;;;10.43;;
76935;SDS011;65881;52.438;16.744;2024-02-16T11:52:01;13.85;;;10.68;;
76935;SDS011;65881;52.438;16.744;2024-02-16T11:54:29;17.50;;;10.52;;
76935;SDS011;65881;52.438;16.744;2024-02-16T11:56:56;15.63;;;9.82;;
76935;SDS011;65881;52.438;16.744;2024-02-16T11:59:23;17.05;;;10.57;;
76935;SDS011;65881;52.438;16.744;2024-02-16T12:01:53;15.43;;;10.80;;
76935;SDS011;65881;52.438;16.744;2024-02-16T12:04:22;18.50;;;9.70;;
76935;SDS011;65881;52.438;16.744;2024-02-16T12:06:54;13.75;;;9.30;;
76935;SDS011;65881;52.438;16.744;2024-02-16T12:09:21;15.38;;;9.05;;
76935;SDS011;65881;52.438;16.744;2024-02-16T12:11:50;14.50;;;9.55;;
76935;SDS011;65881;52.438;16.744;2024-02-16T12:14:18;12.10;;;8.88;;
76935;SDS011;65881;52.438;16.744;2024-02-16T12:16:49;13.90;;;9.95;;
76935;SDS011;65881;52.438;16.744;2024-02-16T12:19:16;15.77;;;10.70;;
76935;SDS011;65881;52.438;16.744;2024-02-16T12:21:50;16.48;;;10.10;;
76935;SDS011;65881;52.438;16.744;2024-02-16T12:24:17;13.85;;;9.20;;
76935;SDS011;65881;52.438;16.744;2024-02-16T12:26:43;12.48;;;9.63;;
76935;SDS011;65881;52.438;16.744;2024-02-16T12:29:09;12.77;;;9.07;;
76935;SDS011;65881;52.438;16.744;2024-02-16T12:31:37;15.70;;;10.40;;
76935;SDS011;65881;52.438;16.744;2024-02-16T12:34:05;14.02;;;9.50;;
76935;SDS011;65881;52.438;16.744;2024-02-16T12:36:32;14.40;;;10.18;;
76935;SDS011;65881;52.438;16.744;2024-02-16T12:38:59;15.40;;;10.43;;
76935;SDS011;65881;52.438;16.744;2024-02-16T12:41:25;15.40;;;10.77;;
76935;SDS011;65881;52.438;16.744;2024-02-16T12:43:51;14.35;;;10.00;;
76935;SDS011;65881;52.438;16.744;2024-02-16T12:48:47;14.27;;;10.32;;
76935;SDS011;65881;52.438;16.744;2024-02-16T12:51:13;14.98;;;11.50;;
76935;SDS011;65881;52.438;16.744;2024-02-16T12:53:39;15.73;;;10.35;;
76935;SDS011;65881;52.438;16.744;2024-02-16T12:56:07;12.43;;;10.38;;
76935;SDS011;65881;52.438;16.744;2024-02-16T12:58:34;17.58;;;10.93;;
76935;SDS011;65881;52.438;16.744;2024-02-16T13:01:06;15.80;;;10.70;;
76935;SDS011;65881;52.438;16.744;2024-02-16T13:03:36;15.88;;;11.13;;
76935;SDS011;65881;52.438;16.744;2024-02-16T13:06:02;13.82;;;10.45;;
76935;SDS011;65881;52.438;16.744;2024-02-16T13:08:28;13.90;;;9.82;;
76935;SDS011;65881;52.438;16.744;2024-02-16T13:10:54;14.93;;;10.85;;
76935;SDS011;65881;52.438;16.744;2024-02-16T13:13:23;14.65;;;10.07;;
76935;SDS011;65881;52.438;16.744;2024-02-16T13:15:49;15.27;;;10.57;;
76935;SDS011;65881;52.438;16.744;2024-02-16T13:18:16;13.70;;;11.00;;
76935;SDS011;65881;52.438;16.744;2024-02-16T13:20:42;16.92;;;11.85;;
76935;SDS011;65881;52.438;16.744;2024-02-16T13:23:08;15.13;;;10.50;;
76935;SDS011;65881;52.438;16.744;2024-02-16T13:25:34;14.57;;;9.88;;
76935;SDS011;65881;52.438;16.744;2024-02-16T13:28:00;13.82;;;10.45;;
76935;SDS011;65881;52.438;16.744;2024-02-16T13:30:26;14.23;;;10.85;;
76935;SDS011;65881;52.438;16.744;2024-02-16T13:32:54;13.50;;;10.23;;
76935;SDS011;65881;52.438;16.744;2024-02-16T13:35:20;18.50;;;10.98;;
76935;SDS011;65881;52.438;16.744;2024-02-16T13:37:46;14.20;;;10.35;;
76935;SDS011;65881;52.438;16.744;2024-02-16T13:40:12;16.63;;;11.45;;
76935;SDS011;65881;52.438;16.744;2024-02-16T13:42:39;25.27;;;12.60;;
76935;SDS011;65881;52.438;16.744;2024-02-16T13:45:05;15.43;;;12.13;;
76935;SDS011;65881;52.438;16.744;2024-02-16T13:47:31;14.13;;;10.85;;
76935;SDS011;65881;52.438;16.744;2024-02-16T13:49:57;15.23;;;11.05;;
76935;SDS011;65881;52.438;16.744;2024-02-16T13:52:23;17.10;;;11.30;;
76935;SDS011;65881;52.438;16.744;2024-02-16T13:54:49;16.92;;;11.82;;
76935;SDS011;65881;52.438;16.744;2024-02-16T13:57:15;18.10;;;11.90;;
76935;SDS011;65881;52.438;16.744;2024-02-16T13:59:42;17.42;;;11.65;;
76935;SDS011;65881;52.438;16.744;2024-02-16T14:02:08;18.08;;;11.43;;
76935;SDS011;65881;52.438;16.744;2024-02-16T14:04:34;17.05;;;12.27;;
76935;SDS011;65881;52.438;16.744;2024-02-16T14:07:00;16.65;;;11.90;;
76935;SDS011;65881;52.438;16.744;2024-02-16T14:09:25;15.38;;;12.00;;
76935;SDS011;65881;52.438;16.744;2024-02-16T14:11:51;18.63;;;13.57;;
76935;SDS011;65881;52.438;16.744;2024-02-16T14:14:20;19.27;;;13.27;;
76935;SDS011;65881;52.438;16.744;2024-02-16T14:16:46;19.50;;;12.65;;
76935;SDS011;65881;52.438;16.744;2024-02-16T14:19:12;17.15;;;11.32;;